Time;durP1;ratioP1;P1;durP2;ratioP2;P2;SDS_P1;SDS_P2;PMS_P1;PMS_P2;Temp;Humidity;BMP_temperature;BMP_pressure;BME280_temperature;BME280_humidity;BME280_pressure;Samples;Min_cycle;Max_cycle;Signal;HPM_P1;HPM_P2
2023/01/24 00:00:11;;;;;;;5.55;1.83;;;;;;;1.51;nan;103867.53;9904295;29;20067;-83
2023/01/24 00:05:13;;;;;;;3.65;2.28;;;;;;;1.46;nan;103855.84;9903781;29;20051;-83
2023/01/24 00:10:15;;;;;;;2.40;1.65;;;;;;;1.49;nan;103852.66;9911529;29;20063;-83
2023/01/24 00:15:20;;;;;;;2.42;1.17;;;;;;;1.49;nan;103856.16;9904801;29;20047;-83
2023/01/24 00:20:23;;;;;;;2.78;1.80;;;;;;;1.49;nan;103848.41;9904068;29;20055;-83
2023/01/24 00:25:25;;;;;;;11.38;2.28;;;;;;;1.49;nan;103838.06;9904916;29;20356;-83
2023/01/24 00:30:26;;;;;;;2.10;1.05;;;;;;;1.52;nan;103837.47;9904646;29;20058;-83
2023/01/24 00:35:28;;;;;;;2.75;1.40;;;;;;;1.53;nan;103837.63;9905935;29;20124;-83
2023/01/24 00:40:31;;;;;;;3.22;2.20;;;;;;;1.49;nan;103835.50;9909484;29;20054;-84
2023/01/24 00:45:36;;;;;;;1.92;1.05;;;;;;;1.54;nan;103834.28;9903316;29;20058;-84
2023/01/24 00:50:38;;;;;;;0.75;0.75;;;;;;;1.53;nan;103831.53;9901180;29;20051;-83
2023/01/24 00:55:42;;;;;;;2.25;1.85;;;;;;;1.52;nan;103820.31;9907491;29;20047;-83
2023/01/24 01:00:44;;;;;;;2.88;1.77;;;;;;;1.54;nan;103823.94;9898946;29;20116;-84
2023/01/24 01:05:45;;;;;;;1.10;1.00;;;;;;;1.55;nan;103825.78;9898898;29;20120;-85
2023/01/24 01:10:47;;;;;;;3.03;1.67;;;;;;;1.54;nan;103823.03;9911157;29;20078;-84
2023/01/24 01:15:48;;;;;;;1.80;1.23;;;;;;;1.49;nan;103817.41;9899614;29;20077;-84
2023/01/24 01:20:50;;;;;;;1.48;1.38;;;;;;;1.48;nan;103822.41;9899793;29;20052;-83
2023/01/24 01:25:52;;;;;;;0.85;0.82;;;;;;;1.53;nan;103816.03;9898498;29;20062;-83
2023/01/24 01:30:54;;;;;;;1.25;1.00;;;;;;;1.55;nan;103815.44;9898391;29;20191;-83
2023/01/24 01:35:56;;;;;;;3.72;1.73;;;;;;;1.55;nan;103815.44;9898071;29;20055;-84
2023/01/24 01:40:58;;;;;;;1.55;1.25;;;;;;;1.56;nan;103806.03;9905400;29;20088;-83
2023/01/24 01:46:19;;;;;;;1.98;0.77;;;;;;;1.58;nan;103813.19;9897693;29;20122;-83
2023/01/24 01:51:29;;;;;;;1.92;1.23;;;;;;;1.57;nan;103806.19;9897385;29;20492;-83
2023/01/24 01:56:42;;;;;;;1.47;1.00;;;;;;;1.61;nan;103804.84;9906089;29;20055;-83
2023/01/24 02:01:45;;;;;;;2.97;1.88;;;;;;;1.65;nan;103806.06;9897555;29;20054;-83
2023/01/24 02:07:05;;;;;;;1.70;1.05;;;;;;;1.62;nan;103801.47;9890147;29;20067;-83
2023/01/24 02:12:12;;;;;;;0.47;0.40;;;;;;;1.63;nan;103799.84;9903498;29;20043;-84
2023/01/24 02:17:20;;;;;;;0.75;0.75;;;;;;;1.64;nan;103804.25;9899005;29;20058;-82
2023/01/24 02:22:34;;;;;;;4.07;0.98;;;;;;;1.66;nan;103803.63;9899585;29;20055;-83
2023/01/24 02:27:36;;;;;;;0.47;0.40;;;;;;;1.68;nan;103801.19;9900123;29;20137;-82
2023/01/24 02:32:37;;;;;;;0.85;0.60;;;;;;;1.67;nan;103805.47;9899577;29;20051;-82
2023/01/24 02:37:39;;;;;;;1.73;1.05;;;;;;;1.66;nan;103813.06;9907236;29;20043;-83
2023/01/24 02:42:41;;;;;;;2.22;1.52;;;;;;;1.68;nan;103814.13;9901275;29;20047;-83
2023/01/24 02:47:46;;;;;;;1.08;0.88;;;;;;;1.69;nan;103818.53;9914347;29;20413;-83
2023/01/24 02:58:08;;;;;;;1.42;0.82;;;;;;;1.65;nan;103817.31;9899039;29;20084;-82
2023/01/24 03:03:12;;;;;;;0.70;0.50;;;;;;;1.68;nan;103815.06;9899965;29;20107;-83
2023/01/24 03:08:13;;;;;;;1.85;0.95;;;;;;;1.66;nan;103810.47;9899053;29;20048;-83
2023/01/24 03:34:48;;;;;;;1.27;0.90;;;;;;;1.65;nan;103807.00;9905452;29;20051;-83
2023/01/24 03:39:58;;;;;;;0.57;0.25;;;;;;;1.66;nan;103813.06;9905878;29;20319;-81
2023/01/24 03:45:02;;;;;;;0.88;0.60;;;;;;;1.67;nan;103815.78;9906451;29;20039;-84
2023/01/24 03:55:24;;;;;;;0.75;0.70;;;;;;;1.71;nan;103824.75;9914602;29;20054;-83
2023/01/24 04:00:27;;;;;;;3.47;1.77;;;;;;;1.65;nan;103826.72;9912496;29;20424;-83
2023/01/24 04:05:34;;;;;;;1.38;1.00;;;;;;;1.65;nan;103826.72;9902758;29;20130;-82
2023/01/24 04:10:36;;;;;;;0.68;0.65;;;;;;;1.64;nan;103827.50;9903846;29;20509;-82
2023/01/24 04:15:38;;;;;;;0.70;0.55;;;;;;;1.63;nan;103834.31;9911748;29;20047;-83
2023/01/24 04:21:06;;;;;;;0.88;0.85;;;;;;;1.61;nan;103842.66;9905193;29;20556;-83
2023/01/24 04:26:08;;;;;;;2.15;1.10;;;;;;;1.60;nan;103839.16;9902366;29;20512;-82
2023/01/24 04:31:11;;;;;;;0.98;0.88;;;;;;;1.56;nan;103832.78;9900455;29;20053;-82
2023/01/24 04:36:36;;;;;;;0.65;0.65;;;;;;;1.57;nan;103842.34;9904231;29;20055;-82
2023/01/24 04:41:38;;;;;;;1.13;0.82;;;;;;;1.56;nan;103839.59;9901890;29;20043;-83
2023/01/24 04:46:41;;;;;;;2.40;1.13;;;;;;;1.59;nan;103848.59;9908464;29;20146;-84
2023/01/24 04:51:43;;;;;;;1.88;0.93;;;;;;;1.60;nan;103839.16;9899813;29;20069;-84
2023/01/24 04:56:51;;;;;;;1.85;0.98;;;;;;;1.56;nan;103835.38;9894091;29;20051;-82
2023/01/24 05:01:53;;;;;;;1.58;1.27;;;;;;;1.57;nan;103838.84;9917225;29;20061;-83
2023/01/24 05:07:04;;;;;;;1.98;0.98;;;;;;;1.59;nan;103835.69;9907197;29;20074;-81
2023/01/24 05:12:07;;;;;;;1.27;0.82;;;;;;;1.57;nan;103832.00;9900870;29;20055;-82
2023/01/24 05:17:09;;;;;;;2.00;1.33;;;;;;;1.56;nan;103830.19;9904106;29;20069;-82
2023/01/24 05:22:11;;;;;;;3.95;2.15;;;;;;;1.50;nan;103816.66;9901992;29;20047;-81
2023/01/24 05:27:16;;;;;;;1.77;1.05;;;;;;;1.53;nan;103821.22;9916969;29;20067;-82
2023/01/24 05:32:26;;;;;;;1.33;1.23;;;;;;;1.52;nan;103820.31;9901874;29;20540;-82
2023/01/24 05:37:28;;;;;;;0.20;0.20;;;;;;;1.54;nan;103833.38;9903375;29;20162;-82
2023/01/24 05:42:30;;;;;;;1.25;0.98;;;;;;;1.47;nan;103831.84;9899724;29;20039;-82
2023/01/24 05:47:32;;;;;;;1.17;0.98;;;;;;;1.50;nan;103834.75;9904183;29;20055;-83
2023/01/24 05:52:34;;;;;;;0.75;0.70;;;;;;;1.52;nan;103840.06;9899443;29;20050;-82
2023/01/24 05:57:37;;;;;;;0.40;0.40;;;;;;;1.50;nan;103844.13;9899563;29;20097;-82
2023/01/24 06:03:03;;;;;;;2.45;1.45;;;;;;;1.47;nan;103847.34;9896923;29;20052;-82
2023/01/24 06:08:05;;;;;;;1.48;0.95;;;;;;;1.49;nan;103845.81;9917015;29;20052;-82
2023/01/24 06:13:07;;;;;;;1.17;1.02;;;;;;;1.50;nan;103844.13;9902964;29;20535;-82
2023/01/24 06:18:14;;;;;;;0.80;0.47;;;;;;;1.48;nan;103843.06;9907973;29;20047;-82
2023/01/24 06:23:25;;;;;;;0.43;0.43;;;;;;;1.48;nan;103849.16;9900694;29;20047;-82
2023/01/24 06:28:31;;;;;;;1.33;0.80;;;;;;;1.46;nan;103845.50;9901505;29;20116;-82
2023/01/24 06:34:00;;;;;;;1.15;1.05;;;;;;;1.44;nan;103838.34;9903322;29;20058;-82
2023/01/24 06:39:02;;;;;;;2.40;1.08;;;;;;;1.49;nan;103842.34;9894464;29;20139;-82
2023/01/24 06:44:04;;;;;;;2.38;1.33;;;;;;;1.48;nan;103849.16;9898129;29;20063;-81
2023/01/24 06:49:06;;;;;;;2.58;1.58;;;;;;;1.49;nan;103856.16;9897577;29;20052;-82
2023/01/24 06:54:08;;;;;;;2.60;1.40;;;;;;;1.49;nan;103855.25;9895591;29;20059;-81
2023/01/24 06:59:10;;;;;;;4.15;2.58;;;;;;;1.42;nan;103864.91;9899492;29;20055;-83
2023/01/24 07:04:11;;;;;;;2.15;1.65;;;;;;;1.45;nan;103858.25;9904042;29;20047;-82
2023/01/24 07:09:13;;;;;;;5.82;1.95;;;;;;;1.44;nan;103867.66;9904436;29;20051;-82
2023/01/24 07:14:15;;;;;;;2.92;2.10;;;;;;;1.46;nan;103867.84;9906915;29;20047;-81
2023/01/24 07:19:21;;;;;;;2.42;1.73;;;;;;;1.43;nan;103876.19;9905077;29;20055;-82
2023/01/24 07:24:26;;;;;;;2.80;1.92;;;;;;;1.41;nan;103886.34;9912725;29;20047;-82
2023/01/24 07:29:27;;;;;;;3.38;2.05;;;;;;;1.42;nan;103892.41;9904373;29;20051;-81
2023/01/24 07:34:29;;;;;;;3.55;2.45;;;;;;;1.35;nan;103901.22;9904903;29;21138;-84
2023/01/24 07:39:30;;;;;;;3.30;1.73;;;;;;;1.33;nan;103909.53;9904272;29;20473;-82
2023/01/24 07:44:32;;;;;;;3.30;1.23;;;;;;;1.30;nan;103906.63;9908013;29;20051;-82
2023/01/24 07:49:34;;;;;;;1.98;1.50;;;;;;;1.29;nan;103915.13;9907051;29;20047;-82
2023/01/24 07:54:35;;;;;;;1.90;1.55;;;;;;;1.31;nan;103916.22;9907063;29;20039;-81
2023/01/24 07:59:37;;;;;;;3.63;1.38;;;;;;;1.31;nan;103916.22;9909192;29;20116;-82
2023/01/24 08:04:40;;;;;;;2.67;1.98;;;;;;;1.32;nan;103910.28;9905704;29;20128;-82
2023/01/24 08:09:41;;;;;;;2.33;1.70;;;;;;;1.28;nan;103910.75;9905705;29;20143;-82
2023/01/24 08:14:43;;;;;;;2.47;1.63;;;;;;;1.26;nan;103913.13;9906503;29;20105;-82
2023/01/24 08:19:45;;;;;;;2.33;1.55;;;;;;;1.26;nan;103915.72;9906827;29;20599;-83
2023/01/24 08:24:57;;;;;;;2.95;1.65;;;;;;;1.31;nan;103916.22;9898879;29;20051;-82
2023/01/24 08:29:58;;;;;;;1.02;0.93;;;;;;;1.27;nan;103924.38;9904842;29;20501;-83
2023/01/24 08:35:00;;;;;;;2.38;1.58;;;;;;;1.28;nan;103921.06;9909889;29;20081;-81
2023/01/24 08:40:01;;;;;;;2.72;1.25;;;;;;;1.32;nan;103923.19;9904345;29;20043;-82
2023/01/24 08:45:04;;;;;;;2.90;2.13;;;;;;;1.34;nan;103926.88;9900708;29;20636;-85
2023/01/24 08:50:06;;;;;;;3.70;2.03;;;;;;;1.36;nan;103940.84;9900324;29;20694;-83
2023/01/24 08:55:08;;;;;;;1.25;1.08;;;;;;;1.35;nan;103941.59;9898544;29;20056;-84
2023/01/24 09:00:10;;;;;;;3.88;2.03;;;;;;;1.31;nan;103954.94;9909344;29;20494;-82
2023/01/24 09:05:12;;;;;;;3.50;2.03;;;;;;;1.29;nan;103953.84;9890945;29;20066;-84
2023/01/24 09:10:14;;;;;;;5.40;1.52;;;;;;;1.30;nan;103950.53;9877836;29;20063;-83
2023/01/24 09:15:15;;;;;;;2.58;1.40;;;;;;;1.32;nan;103956.75;9896892;29;20247;-83
2023/01/24 09:20:18;;;;;;;5.47;2.38;;;;;;;1.33;nan;103956.91;9879758;29;20591;-85
2023/01/24 09:25:20;;;;;;;3.50;2.10;;;;;;;1.34;nan;103952.69;9899872;29;20059;-85
2023/01/24 09:30:23;;;;;;;3.40;2.30;;;;;;;1.33;nan;103951.75;9900264;29;20062;-84
2023/01/24 09:35:25;;;;;;;5.45;3.25;;;;;;;1.39;nan;103954.97;9890440;29;20087;-82
2023/01/24 09:40:45;;;;;;;2.88;1.65;;;;;;;1.39;nan;103954.97;9895400;29;20070;-82
2023/01/24 09:46:04;;;;;;;2.80;1.85;;;;;;;1.44;nan;103952.88;9909914;29;20058;-83
2023/01/24 09:51:25;;;;;;;2.28;1.83;;;;;;;1.37;nan;103953.00;9902801;29;20209;-84
2023/01/24 09:56:41;;;;;;;0.82;0.82;;;;;;;1.38;nan;103948.00;9906700;29;20043;-83
2023/01/24 10:01:43;;;;;;;3.65;2.42;;;;;;;1.35;nan;103954.50;9910187;29;20119;-83
2023/01/24 10:07:03;;;;;;;3.05;1.98;;;;;;;1.36;nan;103951.16;9908002;29;20181;-83
2023/01/24 10:12:23;;;;;;;3.17;2.00;;;;;;;1.41;nan;103944.81;9905583;29;20143;-83
2023/01/24 10:17:50;;;;;;;1.20;1.10;;;;;;;1.41;nan;103934.47;9884498;29;20059;-84
2023/01/24 10:23:12;;;;;;;2.58;1.55;;;;;;;1.48;nan;103933.47;9893838;29;20487;-83
2023/01/24 10:28:22;;;;;;;2.30;1.58;;;;;;;1.49;nan;103923.31;9884218;29;20116;-83
2023/01/24 10:33:29;;;;;;;3.95;2.10;;;;;;;1.51;nan;103924.34;9892970;29;20047;-84
2023/01/24 10:38:32;;;;;;;4.10;1.70;;;;;;;1.36;nan;103920.19;9900934;29;20047;-82
2023/01/24 10:43:34;;;;;;;1.48;1.02;;;;;;;1.29;nan;103928.97;9895269;29;20767;-83
2023/01/24 10:48:36;;;;;;;1.25;1.00;;;;;;;1.28;nan;103927.13;9899577;29;20051;-84
2023/01/24 10:53:38;;;;;;;1.42;1.23;;;;;;;1.18;nan;103914.91;9902393;29;20521;-84
2023/01/24 10:58:43;;;;;;;3.13;1.83;;;;;;;1.21;nan;103912.66;9901027;29;20509;-84
2023/01/24 11:03:47;;;;;;;1.45;0.68;;;;;;;1.16;nan;103911.25;9899991;29;20059;-84
2023/01/24 11:09:13;;;;;;;2.60;1.65;;;;;;;1.10;nan;103910.63;9885291;29;20054;-85
2023/01/24 11:14:19;;;;;;;1.40;0.88;;;;;;;1.14;nan;103909.25;9891035;29;20054;-83
2023/01/24 11:19:30;;;;;;;1.75;1.33;;;;;;;1.18;nan;103912.31;9897082;29;20520;-83
2023/01/24 11:24:43;;;;;;;1.00;0.95;;;;;;;1.03;nan;103900.38;9897626;29;20047;-84
2023/01/24 11:29:45;;;;;;;1.15;0.98;;;;;;;1.15;nan;103898.19;9906624;29;20108;-83
2023/01/24 11:35:10;;;;;;;1.55;1.08;;;;;;;1.09;nan;103903.63;9903988;29;20047;-84
2023/01/24 11:40:40;;;;;;;1.23;1.05;;;;;;;1.14;nan;103897.28;9892743;29;20075;-84
2023/01/24 11:45:51;;;;;;;1.67;1.10;;;;;;;1.22;nan;103903.25;9907666;29;20638;-83
2023/01/24 11:50:55;;;;;;;2.53;1.15;;;;;;;1.29;nan;103904.78;9893213;29;20073;-84
2023/01/24 11:56:28;;;;;;;2.88;0.75;;;;;;;1.36;nan;103899.53;9898021;29;20051;-85
2023/01/24 12:01:46;;;;;;;1.27;1.05;;;;;;;1.37;nan;103891.03;9906261;29;20062;-84
2023/01/24 12:07:01;;;;;;;1.17;0.85;;;;;;;1.30;nan;103883.41;9898780;29;20055;-86
2023/01/24 12:12:24;;;;;;;1.45;1.02;;;;;;;1.27;nan;103883.09;9901264;29;20513;-85
2023/01/24 12:18:00;;;;;;;1.58;0.80;;;;;;;1.29;nan;103886.72;9902232;29;20708;-85
2023/01/24 12:23:20;;;;;;;0.65;0.65;;;;;;;1.27;nan;103876.25;9898843;29;20509;-83
2023/01/24 12:28:33;;;;;;;1.10;0.90;;;;;;;1.30;nan;103868.81;9901450;29;20105;-85
2023/01/24 12:33:46;;;;;;;2.35;1.13;;;;;;;1.21;nan;103858.44;9902295;29;20051;-84
2023/01/24 12:38:55;;;;;;;0.32;0.32;;;;;;;1.25;nan;103849.34;9899370;29;20645;-84
2023/01/24 12:44:27;;;;;;;1.83;1.33;;;;;;;1.17;nan;103839.88;9903282;29;20059;-86
2023/01/24 12:49:54;;;;;;;0.40;0.40;;;;;;;1.22;nan;103849.94;9899217;29;20092;-86
2023/01/24 12:55:24;;;;;;;6.13;1.02;;;;;;;1.31;nan;103849.09;9889705;29;20116;-85
2023/01/24 13:00:39;;;;;;;1.25;1.10;;;;;;;1.22;nan;103839.63;9901082;29;20055;-84
2023/01/24 13:05:51;;;;;;;1.15;0.85;;;;;;;1.22;nan;103836.13;9897005;29;20057;-85
2023/01/24 13:10:52;;;;;;;1.15;1.05;;;;;;;1.28;nan;103835.88;9898333;29;20086;-85
2023/01/24 13:15:57;;;;;;;1.30;0.85;;;;;;;1.21;nan;103837.78;9899864;29;20097;-85
2023/01/24 13:21:06;;;;;;;3.03;1.52;;;;;;;1.11;nan;103842.78;9891892;29;20100;-85
2023/01/24 13:26:35;;;;;;;1.60;1.25;;;;;;;1.09;nan;103846.84;9900142;29;20081;-84
2023/01/24 13:32:08;;;;;;;1.85;1.10;;;;;;;1.19;nan;103823.81;9897469;29;20114;-83
2023/01/24 13:37:24;;;;;;;1.00;0.90;;;;;;;1.10;nan;103819.38;9890832;29;20428;-84
2023/01/24 13:42:37;;;;;;;0.68;0.68;;;;;;;1.07;nan;103819.97;9910309;29;20062;-85
2023/01/24 13:47:41;;;;;;;1.30;1.13;;;;;;;0.85;nan;103817.69;9892604;29;20059;-85
2023/01/24 13:52:54;;;;;;;3.15;1.67;;;;;;;0.79;nan;103822.22;9894579;29;20069;-84
2023/01/24 13:58:07;;;;;;;1.55;0.80;;;;;;;0.78;nan;103823.00;9899522;29;20608;-84
2023/01/24 14:03:19;;;;;;;1.58;0.80;;;;;;;0.86;nan;103824.69;9888111;29;20047;-85
2023/01/24 14:08:21;;;;;;;1.02;0.93;;;;;;;0.86;nan;103829.84;9892618;29;20051;-84
2023/01/24 14:13:43;;;;;;;1.33;1.05;;;;;;;0.72;nan;103817.16;9892166;29;20154;-85
2023/01/24 14:18:51;;;;;;;0.90;0.82;;;;;;;0.75;nan;103820.09;9890823;29;20051;-84
2023/01/24 14:24:01;;;;;;;1.73;1.52;;;;;;;0.77;nan;103818.56;9893201;29;20135;-85
2023/01/24 14:29:17;;;;;;;0.40;0.40;;;;;;;0.79;nan;103821.31;9885231;29;20189;-85
2023/01/24 14:34:39;;;;;;;0.60;0.60;;;;;;;0.74;nan;103812.19;9894269;29;20467;-84
2023/01/24 14:39:41;;;;;;;1.05;0.95;;;;;;;0.73;nan;103820.66;9898896;29;20047;-84
2023/01/24 14:44:54;;;;;;;2.17;1.30;;;;;;;0.76;nan;103819.31;9897932;29;20055;-84
2023/01/24 14:49:57;;;;;;;2.05;1.65;;;;;;;0.75;nan;103817.50;9894715;29;20090;-86
2023/01/24 14:55:20;;;;;;;0.73;0.73;;;;;;;0.63;nan;103811.03;9892071;29;20134;-86
2023/01/24 15:00:25;;;;;;;0.77;0.63;;;;;;;0.62;nan;103816.97;9993077;24;20059;-85
2023/01/24 15:05:51;;;;;;;6.38;1.58;;;;;;;0.58;nan;103817.38;9922140;29;20424;-86
2023/01/24 15:11:03;;;;;;;1.45;0.60;;;;;;;0.46;nan;103823.03;9920989;29;20158;-84
2023/01/24 15:16:05;;;;;;;0.57;0.57;;;;;;;0.52;nan;103826.28;9904939;29;20069;-84
2023/01/24 15:21:18;;;;;;;2.10;1.08;;;;;;;0.51;nan;103816.72;9897358;29;20063;-84
2023/01/24 15:26:30;;;;;;;2.53;0.73;;;;;;;0.48;nan;103831.88;9913023;29;20055;-86
2023/01/24 15:31:33;;;;;;;1.75;1.45;;;;;;;0.37;nan;103822.06;9928655;29;20405;-85
2023/01/24 15:36:35;;;;;;;1.65;1.40;;;;;;;0.27;nan;103820.19;9931945;29;20497;-83
2023/01/24 15:52:20;;;;;;;0.75;0.65;;;;;;;0.22;nan;103789.50;9899352;29;20066;-85
2023/01/24 15:57:33;;;;;;;1.45;1.23;;;;;;;0.31;nan;103785.31;9909181;29;20047;-84
2023/01/24 16:02:35;;;;;;;1.27;1.02;;;;;;;0.37;nan;103788.53;9919146;29;20538;-83
2023/01/24 16:07:37;;;;;;;1.40;1.02;;;;;;;0.28;nan;103796.22;9922065;29;20051;-85
2023/01/24 16:12:39;;;;;;;2.13;1.45;;;;;;;0.27;nan;103806.34;9923065;29;20528;-83
2023/01/24 16:17:41;;;;;;;0.73;0.70;;;;;;;0.23;nan;103799.06;9923283;29;20065;-84
2023/01/24 16:22:42;;;;;;;1.67;1.02;;;;;;;0.15;nan;103799.16;9917516;29;20097;-84
2023/01/24 16:27:45;;;;;;;0.47;0.47;;;;;;;0.20;nan;103802.22;9917071;29;20055;-84
2023/01/24 16:32:48;;;;;;;0.88;0.75;;;;;;;0.17;nan;103809.63;9914999;29;20058;-83
2023/01/24 16:37:49;;;;;;;1.90;1.02;;;;;;;0.11;nan;103798.66;9921853;29;20051;-84
2023/01/24 16:42:51;;;;;;;2.30;1.25;;;;;;;0.01;nan;103783.84;9919252;29;20051;-82
2023/01/24 16:48:03;;;;;;;0.52;0.52;;;;;;;-0.10;nan;103784.38;9929735;29;20055;-84
2023/01/24 16:53:05;;;;;;;2.13;1.50;;;;;;;-0.15;nan;103782.94;9916088;29;20128;-84
2023/01/24 16:58:09;;;;;;;2.35;1.83;;;;;;;-0.07;nan;103779.53;9915352;29;20440;-83
2023/01/24 17:03:14;;;;;;;1.77;1.17;;;;;;;-0.03;nan;103794.56;9913936;29;20059;-84
2023/01/24 17:08:16;;;;;;;2.08;1.45;;;;;;;-0.05;nan;103784.09;9914730;29;20580;-84
2023/01/24 17:13:20;;;;;;;5.55;2.55;;;;;;;-0.08;nan;103791.50;9917591;29;20416;-86
2023/01/24 17:18:49;;;;;;;2.47;1.27;;;;;;;-0.10;nan;103786.94;9896626;29;20139;-84
2023/01/24 17:23:56;;;;;;;2.15;0.88;;;;;;;-0.01;nan;103798.25;9903419;29;20047;-83
2023/01/24 17:28:58;;;;;;;1.70;1.40;;;;;;;-0.05;nan;103798.66;9915465;29;20055;-83
2023/01/24 17:34:00;;;;;;;0.68;0.65;;;;;;;-0.09;nan;103801.63;9911036;29;20067;-83
2023/01/24 17:39:01;;;;;;;0.95;0.85;;;;;;;-0.14;nan;103808.84;9912600;29;20055;-84
2023/01/24 17:44:03;;;;;;;1.65;1.23;;;;;;;-0.21;nan;103809.88;9916773;29;20070;-82
2023/01/24 17:49:05;;;;;;;1.50;0.80;;;;;;;-0.14;nan;103797.66;9935383;29;20103;-83
2023/01/24 17:54:09;;;;;;;0.52;0.52;;;;;;;-0.19;nan;103795.47;9913088;29;20058;-84
2023/01/24 17:59:11;;;;;;;1.95;1.63;;;;;;;-0.20;nan;103793.66;9905361;29;20073;-83
2023/01/24 18:04:13;;;;;;;0.98;0.52;;;;;;;-0.23;nan;103797.56;9910704;29;20588;-84
2023/01/24 18:09:15;;;;;;;2.10;1.40;;;;;;;-0.20;nan;103797.91;9911950;29;20067;-84
2023/01/24 18:14:17;;;;;;;1.38;0.63;;;;;;;-0.29;nan;103805.53;9911231;29;20047;-84
2023/01/24 18:19:19;;;;;;;2.55;1.25;;;;;;;-0.34;nan;103806.69;9905395;29;20509;-83
2023/01/24 18:24:29;;;;;;;1.10;1.00;;;;;;;-0.35;nan;103812.59;9912613;29;20049;-85
2023/01/24 18:29:31;;;;;;;2.13;1.42;;;;;;;-0.44;nan;103806.44;9920178;29;20062;-84
2023/01/24 18:34:33;;;;;;;3.60;1.70;;;;;;;-0.38;nan;103801.94;9923632;29;20066;-83
2023/01/24 18:39:34;;;;;;;2.83;1.88;;;;;;;-0.33;nan;103795.66;9912248;29;20057;-84
2023/01/24 18:44:36;;;;;;;1.40;1.15;;;;;;;-0.31;nan;103782.94;9917588;29;20125;-83
2023/01/24 18:49:38;;;;;;;2.42;1.90;;;;;;;-0.31;nan;103775.22;9916713;29;20108;-84
2023/01/24 18:54:40;;;;;;;1.15;1.05;;;;;;;-0.29;nan;103779.78;9912337;29;20087;-83
2023/01/24 18:59:42;;;;;;;1.02;0.95;;;;;;;-0.36;nan;103778.19;9923852;29;20626;-84
2023/01/24 19:04:43;;;;;;;1.75;1.25;;;;;;;-0.33;nan;103777.63;9916046;29;20098;-84
2023/01/24 19:09:45;;;;;;;2.70;1.75;;;;;;;-0.42;nan;103774.03;9926021;29;20183;-84
2023/01/24 19:14:47;;;;;;;3.00;1.63;;;;;;;-0.41;nan;103768.13;9907977;29;20058;-84
2023/01/24 19:19:52;;;;;;;2.00;1.27;;;;;;;-0.45;nan;103784.00;9918470;29;20059;-83
2023/01/24 19:24:53;;;;;;;1.13;0.95;;;;;;;-0.48;nan;103778.50;9923174;29;20209;-84
2023/01/24 19:29:55;;;;;;;1.55;0.88;;;;;;;-0.42;nan;103784.31;9927273;29;20670;-84
2023/01/24 19:34:57;;;;;;;1.00;0.90;;;;;;;-0.46;nan;103782.19;9917202;29;20048;-83
2023/01/24 19:39:58;;;;;;;0.75;0.75;;;;;;;-0.57;nan;103778.41;9937309;29;20361;-84
2023/01/24 19:45:00;;;;;;;2.17;1.23;;;;;;;-0.59;nan;103779.91;9919258;29;20055;-83
2023/01/24 19:50:03;;;;;;;3.70;2.33;;;;;;;-0.63;nan;103783.81;9931462;29;20066;-83
2023/01/24 19:55:04;;;;;;;2.03;1.83;;;;;;;-0.60;nan;103786.72;9931040;29;20088;-84
2023/01/24 20:00:09;;;;;;;0.63;0.63;;;;;;;-0.75;nan;103788.50;9930444;29;20055;-85
2023/01/24 20:05:11;;;;;;;1.88;1.77;;;;;;;-0.77;nan;103796.78;9930665;29;20130;-84
2023/01/24 20:10:13;;;;;;;2.58;1.73;;;;;;;-0.86;nan;103798.34;9932856;29;20059;-84
2023/01/24 20:15:15;;;;;;;2.58;1.83;;;;;;;-0.90;nan;103798.00;9913365;29;20080;-83
2023/01/24 20:20:19;;;;;;;4.32;2.08;;;;;;;-0.86;nan;103796.69;9951904;29;20051;-83
2023/01/24 20:25:22;;;;;;;1.85;1.02;;;;;;;-0.86;nan;103793.19;9917725;29;20100;-85
2023/01/24 20:30:24;;;;;;;1.20;1.10;;;;;;;-0.92;nan;103799.47;9912283;29;20071;-84
2023/01/24 20:35:28;;;;;;;0.95;0.70;;;;;;;-0.93;nan;103801.88;9928260;29;20062;-85
2023/01/24 20:40:30;;;;;;;0.50;0.50;;;;;;;-0.84;nan;103797.78;9929529;29;20055;-84
2023/01/24 20:45:35;;;;;;;2.08;1.70;;;;;;;-0.73;nan;103807.59;9933921;29;20058;-84
2023/01/24 20:50:36;;;;;;;1.67;1.25;;;;;;;-0.72;nan;103804.28;9934444;29;20108;-84
2023/01/24 20:55:38;;;;;;;3.22;2.42;;;;;;;-0.69;nan;103803.72;9930939;29;20047;-84
2023/01/24 21:00:39;;;;;;;1.15;1.05;;;;;;;-0.69;nan;103805.38;9931956;29;20047;-83
2023/01/24 21:05:41;;;;;;;1.63;1.25;;;;;;;-0.65;nan;103812.69;9935900;29;20053;-84
2023/01/24 21:10:47;;;;;;;1.15;0.90;;;;;;;-0.61;nan;103805.47;9935839;29;20055;-84
2023/01/24 21:15:51;;;;;;;2.90;1.83;;;;;;;-0.70;nan;103796.75;9911504;29;20370;-83
2023/01/24 21:20:56;;;;;;;2.17;1.90;;;;;;;-0.87;nan;103792.31;9911455;29;20055;-83
2023/01/24 21:26:06;;;;;;;2.55;1.65;;;;;;;-0.80;nan;103796.47;9926114;29;20055;-84
2023/01/24 21:31:11;;;;;;;1.08;0.90;;;;;;;-0.78;nan;103794.97;9923324;29;20070;-83
2023/01/24 21:36:15;;;;;;;0.82;0.80;;;;;;;-0.84;nan;103796.84;9906161;29;20074;-84
2023/01/24 21:46:39;;;;;;;4.32;1.88;;;;;;;-0.91;nan;103788.44;9922047;29;20059;-83
2023/01/24 21:51:44;;;;;;;0.85;0.75;;;;;;;-0.92;nan;103784.03;9908083;29;20055;-84
2023/01/24 22:02:30;;;;;;;1.10;1.00;;;;;;;-0.92;nan;103778.88;9897979;29;20051;-84
2023/01/24 22:07:32;;;;;;;1.70;1.40;;;;;;;-0.87;nan;103781.06;9913421;29;20082;-83
2023/01/24 22:12:35;;;;;;;2.35;1.67;;;;;;;-0.86;nan;103772.63;9913841;29;20433;-83
2023/01/24 22:17:37;;;;;;;2.05;1.42;;;;;;;-0.92;nan;103767.69;9914033;29;20062;-84
2023/01/24 22:23:11;;;;;;;1.35;1.23;;;;;;;-0.84;nan;103763.41;9921651;29;20092;-83
2023/01/24 22:28:18;;;;;;;3.17;2.72;;;;;;;-0.90;nan;103761.09;9912436;29;20504;-84
2023/01/24 22:33:20;;;;;;;3.13;1.65;;;;;;;-0.90;nan;103750.78;9927736;29;20516;-83
2023/01/24 22:38:25;;;;;;;2.50;1.48;;;;;;;-0.94;nan;103748.63;9913304;29;20047;-83
2023/01/24 22:43:27;;;;;;;3.78;1.83;;;;;;;-1.04;nan;103744.09;9909048;29;20076;-84
2023/01/24 22:48:29;;;;;;;2.15;1.95;;;;;;;-1.17;nan;103733.19;9905205;29;20401;-84
2023/01/24 22:53:30;;;;;;;1.48;1.38;;;;;;;-1.09;nan;103730.72;9911165;29;20052;-85
2023/01/24 22:58:32;;;;;;;4.50;2.03;;;;;;;-1.13;nan;103737.91;9903563;29;20122;-84
2023/01/24 23:03:34;;;;;;;0.55;0.55;;;;;;;-1.08;nan;103731.66;9919764;29;20055;-84
2023/01/24 23:08:35;;;;;;;2.75;1.75;;;;;;;-1.08;nan;103730.00;9909568;29;20051;-83
2023/01/24 23:24:18;;;;;;;2.40;1.55;;;;;;;-1.19;nan;103703.81;9918303;29;19929;-85
2023/01/24 23:29:27;;;;;;;3.35;2.33;;;;;;;-1.25;nan;103699.84;9926665;29;20692;-83
2023/01/24 23:34:39;;;;;;;3.13;2.40;;;;;;;-1.17;nan;103689.47;9904780;29;20047;-83
2023/01/24 23:39:40;;;;;;;2.05;1.85;;;;;;;-1.19;nan;103685.81;9911681;29;20051;-84
2023/01/24 23:44:42;;;;;;;1.23;1.13;;;;;;;-1.23;nan;103675.91;9912091;29;20058;-83
2023/01/24 23:49:45;;;;;;;4.18;2.33;;;;;;;-1.22;nan;103667.47;9914543;29;20051;-84
2023/01/24 23:54:46;;;;;;;9.02;4.25;;;;;;;-1.17;nan;103661.16;9909498;29;20044;-84
2023/01/24 23:59:48;;;;;;;2.65;2.05;;;;;;;-1.15;nan;103657.13;9923873;29;20065;-84
